sensor_id;sensor_type;location;lat;lon;timestamp;P1;durP1;ratioP1;P2;durP2;ratioP2
33074;SDS011;19433;51.292;6.868;2023-02-28T00:02:15;7.50;;;6.90;;
33074;SDS011;19433;51.292;6.868;2023-02-28T00:04:42;8.57;;;6.50;;
33074;SDS011;19433;51.292;6.868;2023-02-28T00:07:08;6.73;;;6.03;;
33074;SDS011;19433;51.292;6.868;2023-02-28T00:09:33;9.90;;;6.70;;
33074;SDS011;19433;51.292;6.868;2023-02-28T00:11:59;8.20;;;6.77;;
33074;SDS011;19433;51.292;6.868;2023-02-28T00:14:24;7.33;;;6.60;;
33074;SDS011;19433;51.292;6.868;2023-02-28T00:16:49;7.87;;;7.07;;
33074;SDS011;19433;51.292;6.868;2023-02-28T00:19:15;7.73;;;6.97;;
33074;SDS011;19433;51.292;6.868;2023-02-28T00:21:40;7.60;;;6.70;;
33074;SDS011;19433;51.292;6.868;2023-02-28T00:24:05;8.83;;;7.03;;
33074;SDS011;19433;51.292;6.868;2023-02-28T00:26:31;8.37;;;6.70;;
33074;SDS011;19433;51.292;6.868;2023-02-28T00:28:57;7.23;;;6.50;;
33074;SDS011;19433;51.292;6.868;2023-02-28T00:31:22;7.20;;;6.60;;
33074;SDS011;19433;51.292;6.868;2023-02-28T00:33:48;7.43;;;6.57;;
33074;SDS011;19433;51.292;6.868;2023-02-28T00:36:13;8.73;;;6.60;;
33074;SDS011;19433;51.292;6.868;2023-02-28T00:38:39;7.97;;;6.40;;
33074;SDS011;19433;51.292;6.868;2023-02-28T00:41:05;6.63;;;6.03;;
33074;SDS011;19433;51.292;6.868;2023-02-28T00:43:33;7.70;;;6.80;;
33074;SDS011;19433;51.292;6.868;2023-02-28T00:46:00;8.67;;;6.63;;
33074;SDS011;19433;51.292;6.868;2023-02-28T00:48:25;7.47;;;5.83;;
33074;SDS011;19433;51.292;6.868;2023-02-28T00:50:51;7.77;;;6.80;;
33074;SDS011;19433;51.292;6.868;2023-02-28T00:53:16;8.80;;;6.57;;
33074;SDS011;19433;51.292;6.868;2023-02-28T00:55:41;6.13;;;5.53;;
33074;SDS011;19433;51.292;6.868;2023-02-28T00:58:07;7.43;;;6.73;;
33074;SDS011;19433;51.292;6.868;2023-02-28T01:00:32;6.90;;;6.13;;
33074;SDS011;19433;51.292;6.868;2023-02-28T01:02:57;6.90;;;6.30;;
33074;SDS011;19433;51.292;6.868;2023-02-28T01:05:22;8.47;;;6.70;;
33074;SDS011;19433;51.292;6.868;2023-02-28T01:07:48;10.13;;;6.70;;
33074;SDS011;19433;51.292;6.868;2023-02-28T01:10:14;7.57;;;6.87;;
33074;SDS011;19433;51.292;6.868;2023-02-28T01:12:39;6.80;;;6.17;;
33074;SDS011;19433;51.292;6.868;2023-02-28T01:15:04;6.87;;;6.17;;
33074;SDS011;19433;51.292;6.868;2023-02-28T01:17:30;8.73;;;5.97;;
33074;SDS011;19433;51.292;6.868;2023-02-28T01:19:55;6.50;;;6.00;;
33074;SDS011;19433;51.292;6.868;2023-02-28T01:22:21;7.60;;;6.70;;
33074;SDS011;19433;51.292;6.868;2023-02-28T01:24:47;7.67;;;6.07;;
33074;SDS011;19433;51.292;6.868;2023-02-28T01:27:12;7.10;;;6.43;;
33074;SDS011;19433;51.292;6.868;2023-02-28T01:29:38;7.40;;;6.40;;
33074;SDS011;19433;51.292;6.868;2023-02-28T01:32:03;7.63;;;6.83;;
33074;SDS011;19433;51.292;6.868;2023-02-28T01:34:29;7.23;;;6.47;;
33074;SDS011;19433;51.292;6.868;2023-02-28T01:36:54;6.60;;;5.97;;
33074;SDS011;19433;51.292;6.868;2023-02-28T01:39:19;6.60;;;6.00;;
33074;SDS011;19433;51.292;6.868;2023-02-28T01:41:45;7.57;;;6.53;;
33074;SDS011;19433;51.292;6.868;2023-02-28T01:47:13;7.20;;;6.60;;
33074;SDS011;19433;51.292;6.868;2023-02-28T01:49:39;7.87;;;6.80;;
33074;SDS011;19433;51.292;6.868;2023-02-28T01:52:05;8.73;;;6.80;;
33074;SDS011;19433;51.292;6.868;2023-02-28T01:54:31;7.30;;;5.93;;
33074;SDS011;19433;51.292;6.868;2023-02-28T01:57:06;7.53;;;6.77;;
33074;SDS011;19433;51.292;6.868;2023-02-28T01:59:35;6.70;;;6.10;;
33074;SDS011;19433;51.292;6.868;2023-02-28T02:02:16;7.47;;;6.87;;
33074;SDS011;19433;51.292;6.868;2023-02-28T02:05:00;7.60;;;7.00;;
33074;SDS011;19433;51.292;6.868;2023-02-28T02:07:29;9.70;;;6.60;;
33074;SDS011;19433;51.292;6.868;2023-02-28T02:10:06;7.40;;;6.77;;
33074;SDS011;19433;51.292;6.868;2023-02-28T02:12:42;7.67;;;6.97;;
33074;SDS011;19433;51.292;6.868;2023-02-28T02:24:47;8.97;;;6.50;;
33074;SDS011;19433;51.292;6.868;2023-02-28T02:40:23;6.87;;;6.07;;
33074;SDS011;19433;51.292;6.868;2023-02-28T02:48:34;8.70;;;6.40;;
33074;SDS011;19433;51.292;6.868;2023-02-28T02:51:04;7.00;;;6.50;;
33074;SDS011;19433;51.292;6.868;2023-02-28T02:53:37;6.73;;;6.00;;
33074;SDS011;19433;51.292;6.868;2023-02-28T02:56:09;7.23;;;6.53;;
33074;SDS011;19433;51.292;6.868;2023-02-28T02:58:38;8.00;;;6.83;;
33074;SDS011;19433;51.292;6.868;2023-02-28T03:01:07;7.50;;;6.23;;
33074;SDS011;19433;51.292;6.868;2023-02-28T03:03:35;7.63;;;6.90;;
33074;SDS011;19433;51.292;6.868;2023-02-28T03:06:00;8.40;;;6.60;;
33074;SDS011;19433;51.292;6.868;2023-02-28T03:08:28;7.07;;;6.47;;
33074;SDS011;19433;51.292;6.868;2023-02-28T03:11:02;10.53;;;7.20;;
33074;SDS011;19433;51.292;6.868;2023-02-28T03:18:30;6.23;;;5.63;;
33074;SDS011;19433;51.292;6.868;2023-02-28T03:23:45;6.73;;;5.90;;
33074;SDS011;19433;51.292;6.868;2023-02-28T03:26:25;6.77;;;6.03;;
33074;SDS011;19433;51.292;6.868;2023-02-28T03:28:54;5.40;;;5.00;;
33074;SDS011;19433;51.292;6.868;2023-02-28T03:31:30;6.87;;;6.17;;
33074;SDS011;19433;51.292;6.868;2023-02-28T03:36:37;6.33;;;5.73;;
33074;SDS011;19433;51.292;6.868;2023-02-28T03:39:09;7.60;;;6.37;;
33074;SDS011;19433;51.292;6.868;2023-02-28T03:44:57;6.40;;;5.80;;
33074;SDS011;19433;51.292;6.868;2023-02-28T03:47:32;5.93;;;5.30;;
33074;SDS011;19433;51.292;6.868;2023-02-28T03:50:01;7.33;;;5.40;;
33074;SDS011;19433;51.292;6.868;2023-02-28T03:52:42;11.73;;;6.30;;
33074;SDS011;19433;51.292;6.868;2023-02-28T03:55:12;5.60;;;5.10;;
33074;SDS011;19433;51.292;6.868;2023-02-28T03:57:53;6.00;;;5.47;;
33074;SDS011;19433;51.292;6.868;2023-02-28T04:00:26;5.80;;;5.30;;
33074;SDS011;19433;51.292;6.868;2023-02-28T04:02:56;11.73;;;6.70;;
33074;SDS011;19433;51.292;6.868;2023-02-28T04:05:22;5.10;;;4.70;;
33074;SDS011;19433;51.292;6.868;2023-02-28T04:07:48;6.13;;;5.53;;
33074;SDS011;19433;51.292;6.868;2023-02-28T04:10:13;9.43;;;5.47;;
33074;SDS011;19433;51.292;6.868;2023-02-28T04:12:42;5.83;;;5.30;;
33074;SDS011;19433;51.292;6.868;2023-02-28T04:15:07;6.27;;;5.47;;
33074;SDS011;19433;51.292;6.868;2023-02-28T04:17:36;5.87;;;5.37;;
33074;SDS011;19433;51.292;6.868;2023-02-28T04:20:02;6.60;;;5.90;;
33074;SDS011;19433;51.292;6.868;2023-02-28T04:22:34;6.80;;;5.80;;
33074;SDS011;19433;51.292;6.868;2023-02-28T04:25:00;6.00;;;4.90;;
33074;SDS011;19433;51.292;6.868;2023-02-28T04:27:26;9.33;;;5.80;;
33074;SDS011;19433;51.292;6.868;2023-02-28T04:29:52;6.00;;;5.10;;
33074;SDS011;19433;51.292;6.868;2023-02-28T04:32:17;5.67;;;5.17;;
33074;SDS011;19433;51.292;6.868;2023-02-28T04:34:42;6.53;;;5.10;;
33074;SDS011;19433;51.292;6.868;2023-02-28T04:37:07;5.60;;;5.00;;
33074;SDS011;19433;51.292;6.868;2023-02-28T04:39:34;5.80;;;5.20;;
33074;SDS011;19433;51.292;6.868;2023-02-28T04:42:01;5.47;;;4.97;;
33074;SDS011;19433;51.292;6.868;2023-02-28T04:44:26;9.10;;;5.70;;
33074;SDS011;19433;51.292;6.868;2023-02-28T04:46:53;7.07;;;5.77;;
33074;SDS011;19433;51.292;6.868;2023-02-28T04:49:18;5.10;;;4.63;;
33074;SDS011;19433;51.292;6.868;2023-02-28T04:51:44;5.30;;;4.47;;
33074;SDS011;19433;51.292;6.868;2023-02-28T04:54:09;5.00;;;4.60;;
33074;SDS011;19433;51.292;6.868;2023-02-28T04:56:35;5.50;;;5.10;;
33074;SDS011;19433;51.292;6.868;2023-02-28T04:59:00;5.67;;;5.10;;
33074;SDS011;19433;51.292;6.868;2023-02-28T05:01:30;5.60;;;4.17;;
33074;SDS011;19433;51.292;6.868;2023-02-28T05:03:57;5.87;;;5.20;;
33074;SDS011;19433;51.292;6.868;2023-02-28T05:06:24;6.50;;;4.50;;
33074;SDS011;19433;51.292;6.868;2023-02-28T05:08:51;5.90;;;5.40;;
33074;SDS011;19433;51.292;6.868;2023-02-28T05:11:21;9.13;;;5.30;;
33074;SDS011;19433;51.292;6.868;2023-02-28T05:13:47;6.47;;;5.40;;
33074;SDS011;19433;51.292;6.868;2023-02-28T05:16:13;5.77;;;5.20;;
33074;SDS011;19433;51.292;6.868;2023-02-28T05:18:39;5.53;;;4.90;;
33074;SDS011;19433;51.292;6.868;2023-02-28T05:21:04;5.23;;;4.73;;
33074;SDS011;19433;51.292;6.868;2023-02-28T05:23:30;7.47;;;5.80;;
33074;SDS011;19433;51.292;6.868;2023-02-28T05:25:55;7.77;;;5.67;;
33074;SDS011;19433;51.292;6.868;2023-02-28T05:28:20;6.30;;;5.50;;
33074;SDS011;19433;51.292;6.868;2023-02-28T05:30:46;5.17;;;4.77;;
33074;SDS011;19433;51.292;6.868;2023-02-28T05:33:12;9.57;;;5.30;;
33074;SDS011;19433;51.292;6.868;2023-02-28T05:35:40;6.80;;;5.73;;
33074;SDS011;19433;51.292;6.868;2023-02-28T05:38:08;5.63;;;5.10;;
33074;SDS011;19433;51.292;6.868;2023-02-28T05:40:34;7.73;;;7.03;;
33074;SDS011;19433;51.292;6.868;2023-02-28T05:42:59;6.73;;;6.13;;
33074;SDS011;19433;51.292;6.868;2023-02-28T05:45:25;6.77;;;6.03;;
33074;SDS011;19433;51.292;6.868;2023-02-28T05:47:53;7.57;;;6.43;;
33074;SDS011;19433;51.292;6.868;2023-02-28T05:50:19;6.87;;;6.27;;
33074;SDS011;19433;51.292;6.868;2023-02-28T05:52:49;7.20;;;5.30;;
33074;SDS011;19433;51.292;6.868;2023-02-28T05:55:15;7.00;;;5.40;;
33074;SDS011;19433;51.292;6.868;2023-02-28T05:57:40;6.10;;;5.47;;
33074;SDS011;19433;51.292;6.868;2023-02-28T06:00:06;9.23;;;5.97;;
33074;SDS011;19433;51.292;6.868;2023-02-28T06:02:31;6.40;;;5.83;;
33074;SDS011;19433;51.292;6.868;2023-02-28T06:04:57;6.63;;;6.03;;
33074;SDS011;19433;51.292;6.868;2023-02-28T06:07:22;6.30;;;5.80;;
33074;SDS011;19433;51.292;6.868;2023-02-28T06:09:47;6.93;;;6.33;;
33074;SDS011;19433;51.292;6.868;2023-02-28T06:12:13;6.67;;;5.73;;
33074;SDS011;19433;51.292;6.868;2023-02-28T06:14:38;7.87;;;5.50;;
33074;SDS011;19433;51.292;6.868;2023-02-28T06:17:03;6.70;;;5.13;;
33074;SDS011;19433;51.292;6.868;2023-02-28T06:19:29;7.20;;;6.00;;
33074;SDS011;19433;51.292;6.868;2023-02-28T06:21:55;6.57;;;5.97;;
33074;SDS011;19433;51.292;6.868;2023-02-28T06:24:22;5.90;;;4.77;;
33074;SDS011;19433;51.292;6.868;2023-02-28T06:26:49;5.33;;;4.93;;
33074;SDS011;19433;51.292;6.868;2023-02-28T06:29:14;5.47;;;5.07;;
33074;SDS011;19433;51.292;6.868;2023-02-28T06:31:44;7.17;;;5.50;;
33074;SDS011;19433;51.292;6.868;2023-02-28T06:34:10;6.13;;;5.63;;
33074;SDS011;19433;51.292;6.868;2023-02-28T06:36:39;8.00;;;5.97;;
33074;SDS011;19433;51.292;6.868;2023-02-28T06:39:06;7.60;;;5.60;;
33074;SDS011;19433;51.292;6.868;2023-02-28T06:41:32;6.27;;;5.20;;
33074;SDS011;19433;51.292;6.868;2023-02-28T06:44:02;7.87;;;5.50;;
33074;SDS011;19433;51.292;6.868;2023-02-28T06:46:29;7.00;;;5.80;;
33074;SDS011;19433;51.292;6.868;2023-02-28T06:48:54;6.17;;;5.57;;
33074;SDS011;19433;51.292;6.868;2023-02-28T06:51:20;6.37;;;5.73;;
33074;SDS011;19433;51.292;6.868;2023-02-28T06:53:47;5.10;;;4.70;;
33074;SDS011;19433;51.292;6.868;2023-02-28T06:56:14;6.37;;;5.30;;
33074;SDS011;19433;51.292;6.868;2023-02-28T06:58:40;5.53;;;5.03;;
33074;SDS011;19433;51.292;6.868;2023-02-28T07:01:07;4.93;;;4.53;;
33074;SDS011;19433;51.292;6.868;2023-02-28T07:03:34;9.03;;;5.10;;
33074;SDS011;19433;51.292;6.868;2023-02-28T07:06:00;4.67;;;4.27;;
33074;SDS011;19433;51.292;6.868;2023-02-28T07:08:26;5.60;;;5.10;;
33074;SDS011;19433;51.292;6.868;2023-02-28T07:10:55;5.80;;;5.03;;
33074;SDS011;19433;51.292;6.868;2023-02-28T07:13:21;7.80;;;5.40;;
33074;SDS011;19433;51.292;6.868;2023-02-28T07:15:58;5.87;;;5.30;;
33074;SDS011;19433;51.292;6.868;2023-02-28T07:18:25;5.07;;;4.60;;
33074;SDS011;19433;51.292;6.868;2023-02-28T07:20:51;5.40;;;4.93;;
33074;SDS011;19433;51.292;6.868;2023-02-28T07:23:17;6.27;;;4.90;;
33074;SDS011;19433;51.292;6.868;2023-02-28T07:25:43;7.57;;;4.60;;
33074;SDS011;19433;51.292;6.868;2023-02-28T07:28:10;5.17;;;4.67;;
33074;SDS011;19433;51.292;6.868;2023-02-28T07:30:35;4.40;;;3.83;;
33074;SDS011;19433;51.292;6.868;2023-02-28T07:33:01;6.63;;;5.67;;
33074;SDS011;19433;51.292;6.868;2023-02-28T07:35:26;6.47;;;4.67;;
33074;SDS011;19433;51.292;6.868;2023-02-28T07:37:51;4.90;;;4.40;;
33074;SDS011;19433;51.292;6.868;2023-02-28T07:40:17;4.40;;;4.00;;
33074;SDS011;19433;51.292;6.868;2023-02-28T07:42:43;4.80;;;4.43;;
33074;SDS011;19433;51.292;6.868;2023-02-28T07:45:09;4.97;;;4.67;;
33074;SDS011;19433;51.292;6.868;2023-02-28T07:47:37;3.90;;;3.60;;
33074;SDS011;19433;51.292;6.868;2023-02-28T07:50:06;4.10;;;3.70;;
33074;SDS011;19433;51.292;6.868;2023-02-28T07:52:33;5.30;;;4.40;;
33074;SDS011;19433;51.292;6.868;2023-02-28T07:54:58;3.80;;;3.50;;
33074;SDS011;19433;51.292;6.868;2023-02-28T07:57:23;6.40;;;3.90;;
33074;SDS011;19433;51.292;6.868;2023-02-28T07:59:48;3.57;;;3.37;;
33074;SDS011;19433;51.292;6.868;2023-02-28T08:02:14;4.13;;;3.37;;
33074;SDS011;19433;51.292;6.868;2023-02-28T08:04:40;3.23;;;2.93;;
33074;SDS011;19433;51.292;6.868;2023-02-28T08:07:06;4.60;;;3.30;;
33074;SDS011;19433;51.292;6.868;2023-02-28T08:09:31;2.60;;;2.40;;
33074;SDS011;19433;51.292;6.868;2023-02-28T08:11:56;3.20;;;2.90;;
33074;SDS011;19433;51.292;6.868;2023-02-28T08:14:22;3.00;;;2.60;;
33074;SDS011;19433;51.292;6.868;2023-02-28T08:16:47;4.33;;;2.73;;
33074;SDS011;19433;51.292;6.868;2023-02-28T08:19:12;2.60;;;2.43;;
33074;SDS011;19433;51.292;6.868;2023-02-28T08:21:39;2.50;;;2.30;;
33074;SDS011;19433;51.292;6.868;2023-02-28T08:24:05;2.27;;;2.17;;
33074;SDS011;19433;51.292;6.868;2023-02-28T08:26:30;2.60;;;2.40;;
33074;SDS011;19433;51.292;6.868;2023-02-28T08:28:56;2.40;;;2.20;;
33074;SDS011;19433;51.292;6.868;2023-02-28T08:31:21;2.60;;;2.40;;
33074;SDS011;19433;51.292;6.868;2023-02-28T08:33:47;3.37;;;1.87;;
33074;SDS011;19433;51.292;6.868;2023-02-28T08:36:17;2.10;;;2.00;;
33074;SDS011;19433;51.292;6.868;2023-02-28T08:38:43;2.00;;;1.90;;
33074;SDS011;19433;51.292;6.868;2023-02-28T08:41:09;2.13;;;2.03;;
33074;SDS011;19433;51.292;6.868;2023-02-28T08:43:36;2.30;;;2.10;;
33074;SDS011;19433;51.292;6.868;2023-02-28T08:46:03;3.50;;;3.20;;
33074;SDS011;19433;51.292;6.868;2023-02-28T08:48:29;2.83;;;2.00;;
33074;SDS011;19433;51.292;6.868;2023-02-28T08:53:26;2.23;;;2.13;;
33074;SDS011;19433;51.292;6.868;2023-02-28T08:55:56;2.93;;;2.10;;
33074;SDS011;19433;51.292;6.868;2023-02-28T08:58:25;2.37;;;2.00;;
33074;SDS011;19433;51.292;6.868;2023-02-28T09:00:50;5.17;;;2.10;;
33074;SDS011;19433;51.292;6.868;2023-02-28T09:03:16;2.60;;;2.20;;
33074;SDS011;19433;51.292;6.868;2023-02-28T09:05:51;1.83;;;1.70;;
33074;SDS011;19433;51.292;6.868;2023-02-28T09:08:24;2.03;;;1.80;;
33074;SDS011;19433;51.292;6.868;2023-02-28T09:10:51;3.03;;;2.30;;
33074;SDS011;19433;51.292;6.868;2023-02-28T09:13:18;2.00;;;1.80;;
33074;SDS011;19433;51.292;6.868;2023-02-28T09:15:44;2.07;;;1.73;;
33074;SDS011;19433;51.292;6.868;2023-02-28T09:18:10;3.80;;;2.00;;
33074;SDS011;19433;51.292;6.868;2023-02-28T09:20:39;1.70;;;1.60;;
33074;SDS011;19433;51.292;6.868;2023-02-28T09:23:05;3.20;;;2.07;;
33074;SDS011;19433;51.292;6.868;2023-02-28T09:25:32;1.80;;;1.70;;
33074;SDS011;19433;51.292;6.868;2023-02-28T09:27:58;1.83;;;1.73;;
33074;SDS011;19433;51.292;6.868;2023-02-28T09:30:23;1.80;;;1.70;;
33074;SDS011;19433;51.292;6.868;2023-02-28T09:32:48;1.83;;;1.73;;
33074;SDS011;19433;51.292;6.868;2023-02-28T09:35:20;2.60;;;2.40;;
33074;SDS011;19433;51.292;6.868;2023-02-28T09:37:50;2.00;;;1.63;;
33074;SDS011;19433;51.292;6.868;2023-02-28T09:40:16;2.40;;;2.20;;
33074;SDS011;19433;51.292;6.868;2023-02-28T09:42:46;2.30;;;2.20;;
33074;SDS011;19433;51.292;6.868;2023-02-28T09:45:19;1.80;;;1.70;;
33074;SDS011;19433;51.292;6.868;2023-02-28T09:47:58;2.67;;;1.90;;
33074;SDS011;19433;51.292;6.868;2023-02-28T09:53:04;2.23;;;2.03;;
33074;SDS011;19433;51.292;6.868;2023-02-28T09:55:44;3.30;;;1.80;;
33074;SDS011;19433;51.292;6.868;2023-02-28T09:58:23;2.90;;;2.13;;
33074;SDS011;19433;51.292;6.868;2023-02-28T10:00:59;2.20;;;2.00;;
33074;SDS011;19433;51.292;6.868;2023-02-28T10:03:43;2.87;;;2.67;;
33074;SDS011;19433;51.292;6.868;2023-02-28T10:06:34;2.80;;;2.47;;
33074;SDS011;19433;51.292;6.868;2023-02-28T10:09:11;4.83;;;2.80;;
33074;SDS011;19433;51.292;6.868;2023-02-28T10:11:50;3.40;;;2.47;;
33074;SDS011;19433;51.292;6.868;2023-02-28T10:14:18;2.47;;;2.27;;
33074;SDS011;19433;51.292;6.868;2023-02-28T10:16:47;2.30;;;2.20;;
33074;SDS011;19433;51.292;6.868;2023-02-28T10:22:14;2.60;;;2.40;;
33074;SDS011;19433;51.292;6.868;2023-02-28T10:24:45;2.33;;;2.13;;
33074;SDS011;19433;51.292;6.868;2023-02-28T10:27:16;1.83;;;1.73;;
33074;SDS011;19433;51.292;6.868;2023-02-28T10:29:50;2.50;;;2.40;;
33074;SDS011;19433;51.292;6.868;2023-02-28T10:32:20;2.10;;;2.00;;
33074;SDS011;19433;51.292;6.868;2023-02-28T10:34:57;1.90;;;1.80;;
33074;SDS011;19433;51.292;6.868;2023-02-28T10:37:26;2.00;;;1.90;;
33074;SDS011;19433;51.292;6.868;2023-02-28T10:39:52;5.20;;;2.17;;
33074;SDS011;19433;51.292;6.868;2023-02-28T10:42:21;2.77;;;2.07;;
33074;SDS011;19433;51.292;6.868;2023-02-28T10:45:05;2.50;;;2.30;;
33074;SDS011;19433;51.292;6.868;2023-02-28T10:47:30;2.30;;;2.10;;
33074;SDS011;19433;51.292;6.868;2023-02-28T10:49:59;3.70;;;2.03;;
33074;SDS011;19433;51.292;6.868;2023-02-28T10:52:38;2.13;;;1.97;;
33074;SDS011;19433;51.292;6.868;2023-02-28T10:55:24;2.30;;;1.93;;
33074;SDS011;19433;51.292;6.868;2023-02-28T10:57:51;1.80;;;1.70;;
33074;SDS011;19433;51.292;6.868;2023-02-28T11:00:24;2.10;;;1.97;;
33074;SDS011;19433;51.292;6.868;2023-02-28T11:02:50;2.40;;;1.70;;
33074;SDS011;19433;51.292;6.868;2023-02-28T11:05:27;3.77;;;1.73;;
33074;SDS011;19433;51.292;6.868;2023-02-28T11:07:53;2.03;;;1.93;;
33074;SDS011;19433;51.292;6.868;2023-02-28T11:10:21;3.90;;;1.90;;
33074;SDS011;19433;51.292;6.868;2023-02-28T11:12:54;2.30;;;2.20;;
33074;SDS011;19433;51.292;6.868;2023-02-28T11:17:52;2.10;;;2.00;;
33074;SDS011;19433;51.292;6.868;2023-02-28T11:20:21;1.63;;;1.53;;
33074;SDS011;19433;51.292;6.868;2023-02-28T11:22:49;2.33;;;2.00;;
33074;SDS011;19433;51.292;6.868;2023-02-28T11:25:26;1.60;;;1.50;;
33074;SDS011;19433;51.292;6.868;2023-02-28T11:27:56;3.77;;;1.90;;
33074;SDS011;19433;51.292;6.868;2023-02-28T11:30:30;2.30;;;2.13;;
33074;SDS011;19433;51.292;6.868;2023-02-28T11:32:59;2.50;;;2.30;;
33074;SDS011;19433;51.292;6.868;2023-02-28T11:35:29;1.90;;;1.80;;
33074;SDS011;19433;51.292;6.868;2023-02-28T11:37:59;1.50;;;1.40;;
33074;SDS011;19433;51.292;6.868;2023-02-28T11:40:44;2.33;;;1.90;;
33074;SDS011;19433;51.292;6.868;2023-02-28T11:43:38;1.90;;;1.80;;
33074;SDS011;19433;51.292;6.868;2023-02-28T11:46:15;2.00;;;1.90;;
33074;SDS011;19433;51.292;6.868;2023-02-28T11:51:51;1.70;;;1.60;;
33074;SDS011;19433;51.292;6.868;2023-02-28T12:02:58;1.80;;;1.70;;
33074;SDS011;19433;51.292;6.868;2023-02-28T12:11:14;2.40;;;2.20;;
33074;SDS011;19433;51.292;6.868;2023-02-28T12:13:46;2.50;;;2.20;;
33074;SDS011;19433;51.292;6.868;2023-02-28T12:27:18;2.20;;;2.10;;
33074;SDS011;19433;51.292;6.868;2023-02-28T12:30:33;2.97;;;1.97;;
33074;SDS011;19433;51.292;6.868;2023-02-28T12:32:52;3.00;;;1.93;;
33074;SDS011;19433;51.292;6.868;2023-02-28T12:35:23;2.03;;;1.83;;
33074;SDS011;19433;51.292;6.868;2023-02-28T12:38:04;2.60;;;2.40;;
33074;SDS011;19433;51.292;6.868;2023-02-28T12:43:16;2.40;;;2.20;;
33074;SDS011;19433;51.292;6.868;2023-02-28T12:48:16;4.60;;;2.17;;
33074;SDS011;19433;51.292;6.868;2023-02-28T12:50:47;2.17;;;1.97;;
33074;SDS011;19433;51.292;6.868;2023-02-28T12:55:48;2.77;;;2.57;;
33074;SDS011;19433;51.292;6.868;2023-02-28T13:06:33;2.07;;;1.97;;
33074;SDS011;19433;51.292;6.868;2023-02-28T13:09:10;2.10;;;2.00;;
33074;SDS011;19433;51.292;6.868;2023-02-28T13:11:45;2.37;;;2.23;;
33074;SDS011;19433;51.292;6.868;2023-02-28T13:14:45;2.70;;;2.40;;
33074;SDS011;19433;51.292;6.868;2023-02-28T13:19:34;3.57;;;2.30;;
33074;SDS011;19433;51.292;6.868;2023-02-28T13:22:02;2.33;;;2.23;;
33074;SDS011;19433;51.292;6.868;2023-02-28T13:24:50;1.70;;;1.60;;
33074;SDS011;19433;51.292;6.868;2023-02-28T13:27:23;3.50;;;2.40;;
33074;SDS011;19433;51.292;6.868;2023-02-28T13:29:57;3.20;;;2.90;;
33074;SDS011;19433;51.292;6.868;2023-02-28T13:52:53;1.83;;;1.70;;
33074;SDS011;19433;51.292;6.868;2023-02-28T14:01:28;2.43;;;2.33;;
33074;SDS011;19433;51.292;6.868;2023-02-28T14:06:51;2.27;;;2.07;;
33074;SDS011;19433;51.292;6.868;2023-02-28T14:11:52;3.20;;;2.90;;
33074;SDS011;19433;51.292;6.868;2023-02-28T14:17:05;2.77;;;2.53;;
33074;SDS011;19433;51.292;6.868;2023-02-28T14:19:35;8.30;;;3.00;;
33074;SDS011;19433;51.292;6.868;2023-02-28T14:33:26;2.97;;;2.77;;
33074;SDS011;19433;51.292;6.868;2023-02-28T14:38:52;2.63;;;2.43;;
33074;SDS011;19433;51.292;6.868;2023-02-28T14:41:20;3.23;;;2.90;;
33074;SDS011;19433;51.292;6.868;2023-02-28T14:43:49;3.60;;;3.30;;
33074;SDS011;19433;51.292;6.868;2023-02-28T14:46:17;2.60;;;2.40;;
33074;SDS011;19433;51.292;6.868;2023-02-28T14:48:45;3.53;;;3.23;;
33074;SDS011;19433;51.292;6.868;2023-02-28T14:51:11;3.40;;;2.47;;
33074;SDS011;19433;51.292;6.868;2023-02-28T14:53:42;3.47;;;3.27;;
33074;SDS011;19433;51.292;6.868;2023-02-28T14:56:23;2.87;;;2.67;;
33074;SDS011;19433;51.292;6.868;2023-02-28T14:58:52;2.93;;;2.73;;
33074;SDS011;19433;51.292;6.868;2023-02-28T15:01:20;3.17;;;2.90;;
33074;SDS011;19433;51.292;6.868;2023-02-28T15:03:47;3.43;;;3.13;;
33074;SDS011;19433;51.292;6.868;2023-02-28T15:06:16;2.93;;;2.73;;
33074;SDS011;19433;51.292;6.868;2023-02-28T15:08:43;3.50;;;3.20;;
33074;SDS011;19433;51.292;6.868;2023-02-28T15:11:19;3.50;;;3.00;;
33074;SDS011;19433;51.292;6.868;2023-02-28T15:13:50;3.10;;;2.90;;
33074;SDS011;19433;51.292;6.868;2023-02-28T15:16:20;6.13;;;3.17;;
33074;SDS011;19433;51.292;6.868;2023-02-28T15:18:52;3.13;;;2.70;;
33074;SDS011;19433;51.292;6.868;2023-02-28T15:21:22;4.00;;;3.30;;
33074;SDS011;19433;51.292;6.868;2023-02-28T15:23:55;3.40;;;3.20;;
33074;SDS011;19433;51.292;6.868;2023-02-28T15:26:28;3.17;;;2.97;;
33074;SDS011;19433;51.292;6.868;2023-02-28T15:29:00;3.60;;;3.30;;
33074;SDS011;19433;51.292;6.868;2023-02-28T15:31:40;3.40;;;3.10;;
33074;SDS011;19433;51.292;6.868;2023-02-28T15:34:19;3.80;;;3.50;;
33074;SDS011;19433;51.292;6.868;2023-02-28T15:36:46;5.23;;;3.53;;
33074;SDS011;19433;51.292;6.868;2023-02-28T15:39:23;3.43;;;3.13;;
33074;SDS011;19433;51.292;6.868;2023-02-28T15:41:51;4.10;;;3.80;;
33074;SDS011;19433;51.292;6.868;2023-02-28T15:47:05;3.20;;;2.90;;
33074;SDS011;19433;51.292;6.868;2023-02-28T15:55:07;3.53;;;3.27;;
33074;SDS011;19433;51.292;6.868;2023-02-28T15:57:42;4.03;;;3.60;;
33074;SDS011;19433;51.292;6.868;2023-02-28T16:00:10;4.33;;;3.67;;
33074;SDS011;19433;51.292;6.868;2023-02-28T16:02:39;3.60;;;3.20;;
33074;SDS011;19433;51.292;6.868;2023-02-28T16:07:36;4.80;;;3.40;;
33074;SDS011;19433;51.292;6.868;2023-02-28T16:10:04;3.40;;;3.10;;
33074;SDS011;19433;51.292;6.868;2023-02-28T16:12:31;4.90;;;3.50;;
33074;SDS011;19433;51.292;6.868;2023-02-28T16:14:59;3.63;;;3.40;;
33074;SDS011;19433;51.292;6.868;2023-02-28T16:17:31;4.40;;;4.03;;
33074;SDS011;19433;51.292;6.868;2023-02-28T16:19:59;4.57;;;4.13;;
33074;SDS011;19433;51.292;6.868;2023-02-28T16:22:25;4.67;;;4.33;;
33074;SDS011;19433;51.292;6.868;2023-02-28T16:24:50;5.90;;;3.30;;
33074;SDS011;19433;51.292;6.868;2023-02-28T16:27:17;3.93;;;3.63;;
33074;SDS011;19433;51.292;6.868;2023-02-28T16:29:55;3.40;;;3.10;;
33074;SDS011;19433;51.292;6.868;2023-02-28T16:32:20;4.23;;;3.93;;
33074;SDS011;19433;51.292;6.868;2023-02-28T16:34:46;4.33;;;4.03;;
33074;SDS011;19433;51.292;6.868;2023-02-28T16:37:16;5.13;;;3.80;;
33074;SDS011;19433;51.292;6.868;2023-02-28T16:39:42;4.93;;;3.90;;
33074;SDS011;19433;51.292;6.868;2023-02-28T16:42:42;4.03;;;3.67;;
33074;SDS011;19433;51.292;6.868;2023-02-28T16:45:02;4.40;;;4.03;;
33074;SDS011;19433;51.292;6.868;2023-02-28T16:47:28;3.70;;;3.40;;
33074;SDS011;19433;51.292;6.868;2023-02-28T16:49:53;4.53;;;4.17;;
33074;SDS011;19433;51.292;6.868;2023-02-28T16:52:18;3.10;;;2.80;;
33074;SDS011;19433;51.292;6.868;2023-02-28T16:54:43;3.60;;;3.30;;
33074;SDS011;19433;51.292;6.868;2023-02-28T16:57:17;3.60;;;3.40;;
33074;SDS011;19433;51.292;6.868;2023-02-28T16:59:46;3.93;;;3.63;;
33074;SDS011;19433;51.292;6.868;2023-02-28T17:02:13;4.03;;;3.73;;
33074;SDS011;19433;51.292;6.868;2023-02-28T17:04:40;3.70;;;3.40;;
33074;SDS011;19433;51.292;6.868;2023-02-28T17:07:09;4.23;;;3.93;;
33074;SDS011;19433;51.292;6.868;2023-02-28T17:09:37;4.80;;;3.50;;
33074;SDS011;19433;51.292;6.868;2023-02-28T17:12:02;3.53;;;3.23;;
33074;SDS011;19433;51.292;6.868;2023-02-28T17:14:28;3.70;;;3.40;;
33074;SDS011;19433;51.292;6.868;2023-02-28T17:16:53;3.87;;;3.53;;
33074;SDS011;19433;51.292;6.868;2023-02-28T17:19:18;4.27;;;3.87;;
33074;SDS011;19433;51.292;6.868;2023-02-28T17:21:44;3.90;;;3.50;;
33074;SDS011;19433;51.292;6.868;2023-02-28T17:24:10;3.63;;;3.33;;
33074;SDS011;19433;51.292;6.868;2023-02-28T17:26:37;4.30;;;3.90;;
33074;SDS011;19433;51.292;6.868;2023-02-28T17:29:05;4.77;;;4.17;;
33074;SDS011;19433;51.292;6.868;2023-02-28T17:31:36;5.57;;;4.10;;
33074;SDS011;19433;51.292;6.868;2023-02-28T17:34:04;5.57;;;4.50;;
33074;SDS011;19433;51.292;6.868;2023-02-28T17:36:29;4.20;;;3.83;;
33074;SDS011;19433;51.292;6.868;2023-02-28T17:38:55;4.07;;;3.77;;
33074;SDS011;19433;51.292;6.868;2023-02-28T17:41:20;4.27;;;3.87;;